Terminal Aerodrome Forecast
Issued by NWS Boston, MA

Home | Current Version | Previous Version | Text Only | Print | Product List | Glossary On
Versions: 1 2 3 4 5 6 7 8 9 10 11 12 13 14 15 16 17 18 19 20 21 22 23 24 25
000
FTUS41 KBOX 262320
TAFPVD
TAF
KPVD 262320Z 2700/2724 07004KT 4SM BR BKN008
     FM270200 VRB03KT 1SM -DZ BR OVC003
     FM271300 00000KT 1 1/2SM -DZ BR OVC008
     FM271500 VRB03KT P6SM OVC010
     FM271900 17006KT P6SM OVC015=

USA.gov is the U.S. government's official web portal to all federal, state and local government web resources and services.